Terminal Aerodrome Forecast
Issued by NWS

Home | Current Version | Previous Version | Text Only | Print | Product List | Glossary On
Versions: 1 2 3 4 5 6 7 8 9 10 11 12 13 14 15 16 17 18 19
376
FTUS44 KCRP 290532
TAFLRD
TAF
KLRD 290532Z 2906/3006 13015KT P6SM BKN250
     FM290800 13010KT P6SM SCT015 BKN150
     FM291700 14012KT P6SM BKN035 OVC200
     FM292000 12015G20KT P6SM VCTS SCT060CB BKN250
     FM300400 13010KT P6SM SCT025 BKN250=

USA.gov is the U.S. government's official web portal to all federal, state and local government web resources and services.